Time;durP1;ratioP1;P1;durP2;ratioP2;P2;SDS_P1;SDS_P2;PMS_P1;PMS_P2;Temp;Humidity;BMP_temperature;BMP_pressure;BME280_temperature;BME280_humidity;BME280_pressure;Samples;Min_cycle;Max_cycle;Signal;HPM_P1;HPM_P2
2023/03/20 00:02:13;;;;;;;;;;;;;;;;;;7369983;19;802;-66
2023/03/20 00:04:41;;;;;;;;;;;;;;;;;;7373669;19;1278;-65
2023/03/20 00:07:11;;;;;;;;;;;;;;;;;;7375684;19;825;-65
2023/03/20 00:09:39;;;;;;;;;;;;;;;;;;7374632;19;1117;-65
2023/03/20 00:12:07;;;;;;;;;;;;;;;;;;7373953;19;862;-65
2023/03/20 00:14:35;;;;;;;;;;;;;;;;;;7376029;19;1269;-65
2023/03/20 00:17:04;;;;;;;;;;;;;;;;;;7375204;19;1873;-65
2023/03/20 00:19:32;;;;;;;;;;;;;;;;;;7378425;19;885;-64
2023/03/20 00:22:00;;;;;;;;;;;;;;;;;;7378032;19;830;-65
2023/03/20 00:24:29;;;;;;;;;;;;;;;;;;7375047;19;1255;-65
2023/03/20 00:26:57;;;;;;;;;;;;;;;;;;7377865;19;841;-65
2023/03/20 00:29:25;;;;;;;;;;;;;;;;;;7373578;19;770;-65
2023/03/20 00:31:53;;;;;;;;;;;;;;;;;;7367872;19;806;-65
2023/03/20 00:34:22;;;;;;;;;;;;;;;;;;7366059;19;1269;-65
2023/03/20 00:36:50;;;;;;;;;;;;;;;;;;7364732;19;1842;-65
2023/03/20 00:39:18;;;;;;;;;;;;;;;;;;7365871;19;763;-66
2023/03/20 00:41:46;;;;;;;;;;;;;;;;;;7367034;19;827;-65
2023/03/20 00:44:15;;;;;;;;;;;;;;;;;;7364112;19;1242;-65
2023/03/20 00:46:43;;;;;;;;;;;;;;;;;;7366874;19;836;-65
2023/03/20 00:49:11;;;;;;;;;;;;;;;;;;7364654;19;823;-65
2023/03/20 00:51:41;;;;;;;;;;;;;;;;;;7371702;19;872;-65
2023/03/20 00:54:09;;;;;;;;;;;;;;;;;;7371008;19;1251;-65
2023/03/20 00:56:38;;;;;;;;;;;;;;;;;;7371264;19;1861;-65
2023/03/20 00:59:07;;;;;;;;;;;;;;;;;;7375742;19;1728;-65
2023/03/20 01:01:35;;;;;;;;;;;;;;;;;;7370007;19;771;-66
2023/03/20 01:04:03;;;;;;;;;;;;;;;;;;7370783;19;1290;-65
2023/03/20 01:06:31;;;;;;;;;;;;;;;;;;7370922;19;809;-65
2023/03/20 01:09:00;;;;;;;;;;;;;;;;;;7367723;19;818;-66
2023/03/20 01:11:28;;;;;;;;;;;;;;;;;;7369173;19;774;-65
2023/03/20 01:13:56;;;;;;;;;;;;;;;;;;7369807;19;1329;-66
2023/03/20 01:16:24;;;;;;;;;;;;;;;;;;7372117;19;1873;-66
2023/03/20 01:18:52;;;;;;;;;;;;;;;;;;7372609;19;871;-66
2023/03/20 01:21:20;;;;;;;;;;;;;;;;;;7370898;19;707;-66
2023/03/20 01:23:49;;;;;;;;;;;;;;;;;;7367975;19;1286;-66
2023/03/20 01:26:17;;;;;;;;;;;;;;;;;;7370281;19;842;-65
2023/03/20 01:28:46;;;;;;;;;;;;;;;;;;7369531;19;806;-66
2023/03/20 01:31:14;;;;;;;;;;;;;;;;;;7368732;19;815;-66
2023/03/20 01:33:43;;;;;;;;;;;;;;;;;;7367870;19;1282;-65
2023/03/20 01:36:11;;;;;;;;;;;;;;;;;;7367134;19;1845;-65
2023/03/20 01:38:39;;;;;;;;;;;;;;;;;;7367544;19;779;-65
2023/03/20 01:41:09;;;;;;;;;;;;;;;;;;7371428;19;1559;-65
2023/03/20 01:43:39;;;;;;;;;;;;;;;;;;7367461;19;1292;-65
2023/03/20 01:46:07;;;;;;;;;;;;;;;;;;7368144;19;861;-65
2023/03/20 01:48:36;;;;;;;;;;;;;;;;;;7367411;19;814;-65
2023/03/20 01:51:04;;;;;;;;;;;;;;;;;;7368210;19;798;-65
2023/03/20 01:53:32;;;;;;;;;;;;;;;;;;7367122;19;1345;-64
2023/03/20 01:56:02;;;;;;;;;;;;;;;;;;7367417;19;1846;-66
2023/03/20 01:58:40;;;;;;;;;;;;;;;;;;7371250;19;1711;-66
2023/03/20 02:01:08;;;;;;;;;;;;;;;;;;7366630;19;826;-65
2023/03/20 02:03:37;;;;;;;;;;;;;;;;;;7368716;19;1278;-65
2023/03/20 02:06:24;;;;;;;;;;;;;;;;;;7371264;19;698;-64
2023/03/20 02:09:15;;;;;;;;;;;;;;;;;;7370108;19;1400;-64
2023/03/20 02:11:45;;;;;;;;;;;;;;;;;;7369576;19;834;-65
2023/03/20 02:14:13;;;;;;;;;;;;;;;;;;7368163;19;1274;-64
2023/03/20 02:16:50;;;;;;;;;;;;;;;;;;7367229;19;1875;-67
2023/03/20 02:19:41;;;;;;;;;;;;;;;;;;7367978;19;1175;-64
2023/03/20 02:22:09;;;;;;;;;;;;;;;;;;7366743;19;779;-65
2023/03/20 02:24:38;;;;;;;;;;;;;;;;;;7365168;19;1832;-65
2023/03/20 02:27:07;;;;;;;;;;;;;;;;;;7367147;19;766;-65
2023/03/20 02:29:35;;;;;;;;;;;;;;;;;;7366018;19;862;-64
2023/03/20 02:32:03;;;;;;;;;;;;;;;;;;7366388;19;945;-65
2023/03/20 02:34:31;;;;;;;;;;;;;;;;;;7365897;19;1266;-64
2023/03/20 02:37:00;;;;;;;;;;;;;;;;;;7365654;19;1846;-65
2023/03/20 02:39:28;;;;;;;;;;;;;;;;;;7367340;19;852;-64
2023/03/20 02:41:56;;;;;;;;;;;;;;;;;;7367421;19;842;-63
2023/03/20 02:44:24;;;;;;;;;;;;;;;;;;7367127;19;1262;-64
2023/03/20 02:46:58;;;;;;;;;;;;;;;;;;7365904;19;723;-64
2023/03/20 02:49:28;;;;;;;;;;;;;;;;;;7365666;19;823;-65
2023/03/20 02:51:56;;;;;;;;;;;;;;;;;;7367681;19;847;-64
2023/03/20 02:54:24;;;;;;;;;;;;;;;;;;7365685;19;1361;-65
2023/03/20 02:56:56;;;;;;;;;;;;;;;;;;7364663;19;1864;-64
2023/03/20 02:59:24;;;;;;;;;;;;;;;;;;7366102;19;823;-64
2023/03/20 03:01:53;;;;;;;;;;;;;;;;;;7365629;19;804;-65
2023/03/20 03:04:21;;;;;;;;;;;;;;;;;;7365662;19;1352;-65
2023/03/20 03:06:50;;;;;;;;;;;;;;;;;;7366493;19;857;-66
2023/03/20 03:09:18;;;;;;;;;;;;;;;;;;7366151;19;913;-66
2023/03/20 03:11:46;;;;;;;;;;;;;;;;;;7365611;19;862;-66
2023/03/20 03:14:15;;;;;;;;;;;;;;;;;;7362076;19;1282;-65
2023/03/20 03:16:43;;;;;;;;;;;;;;;;;;7364909;19;1811;-66
2023/03/20 03:19:11;;;;;;;;;;;;;;;;;;7365646;19;837;-65
2023/03/20 03:21:39;;;;;;;;;;;;;;;;;;7366097;19;847;-65
2023/03/20 03:24:07;;;;;;;;;;;;;;;;;;7364646;19;1255;-66
2023/03/20 03:26:36;;;;;;;;;;;;;;;;;;7366899;19;814;-65
2023/03/20 03:29:04;;;;;;;;;;;;;;;;;;7365039;19;857;-66
2023/03/20 03:31:32;;;;;;;;;;;;;;;;;;7365222;19;829;-66
2023/03/20 03:34:00;;;;;;;;;;;;;;;;;;7364563;19;1285;-66
2023/03/20 03:36:29;;;;;;;;;;;;;;;;;;7365201;19;1857;-66
2023/03/20 03:38:57;;;;;;;;;;;;;;;;;;7364630;19;791;-66
2023/03/20 03:41:25;;;;;;;;;;;;;;;;;;7366769;19;808;-66
2023/03/20 03:43:53;;;;;;;;;;;;;;;;;;7364532;19;1290;-66
2023/03/20 03:46:21;;;;;;;;;;;;;;;;;;7364791;19;854;-66
2023/03/20 03:48:49;;;;;;;;;;;;;;;;;;7365526;19;782;-66
2023/03/20 03:51:17;;;;;;;;;;;;;;;;;;7365499;19;801;-67
2023/03/20 03:53:58;;;;;;;;;;;;;;;;;;7363515;19;1321;-66
2023/03/20 03:56:26;;;;;;;;;;;;;;;;;;7364897;19;1833;-65
2023/03/20 03:58:55;;;;;;;;;;;;;;;;;;7367507;19;1671;-66
2023/03/20 04:01:24;;;;;;;;;;;;;;;;;;7364528;19;934;-66
2023/03/20 04:03:52;;;;;;;;;;;;;;;;;;7365532;19;1330;-65
2023/03/20 04:06:20;;;;;;;;;;;;;;;;;;7364384;19;852;-66
2023/03/20 04:08:49;;;;;;;;;;;;;;;;;;7363510;19;745;-66
2023/03/20 04:11:17;;;;;;;;;;;;;;;;;;7364328;19;814;-66
2023/03/20 04:13:45;;;;;;;;;;;;;;;;;;7365223;19;1282;-66
2023/03/20 04:16:15;;;;;;;;;;;;;;;;;;7365128;19;749;-65
2023/03/20 04:18:45;;;;;;;;;;;;;;;;;;7360825;19;1854;-65
2023/03/20 04:21:15;;;;;;;;;;;;;;;;;;7365416;19;762;-65
2023/03/20 04:23:44;;;;;;;;;;;;;;;;;;7362553;19;1367;-66
2023/03/20 04:26:12;;;;;;;;;;;;;;;;;;7363262;19;893;-66
2023/03/20 04:28:40;;;;;;;;;;;;;;;;;;7364623;19;810;-66
2023/03/20 04:31:21;;;;;;;;;;;;;;;;;;7365198;19;732;-66
2023/03/20 04:34:01;;;;;;;;;;;;;;;;;;7364291;19;1333;-66
2023/03/20 04:36:45;;;;;;;;;;;;;;;;;;7363177;19;1841;-66
2023/03/20 04:39:15;;;;;;;;;;;;;;;;;;7362993;19;832;-66
2023/03/20 04:41:43;;;;;;;;;;;;;;;;;;7363993;19;829;-65
2023/03/20 04:44:12;;;;;;;;;;;;;;;;;;7362791;19;1286;-66
2023/03/20 04:46:41;;;;;;;;;;;;;;;;;;7363077;19;842;-66
2023/03/20 04:49:16;;;;;;;;;;;;;;;;;;7361913;19;758;-65
2023/03/20 04:51:44;;;;;;;;;;;;;;;;;;7364883;19;802;-66
2023/03/20 04:54:14;;;;;;;;;;;;;;;;;;7362202;19;1346;-66
2023/03/20 04:56:43;;;;;;;;;;;;;;;;;;7363005;19;1888;-66
2023/03/20 04:59:15;;;;;;;;;;;;;;;;;;7366725;19;1908;-66
2023/03/20 05:01:43;;;;;;;;;;;;;;;;;;7362979;19;873;-66
2023/03/20 05:04:12;;;;;;;;;;;;;;;;;;7361623;19;1329;-65
2023/03/20 05:06:40;;;;;;;;;;;;;;;;;;7363037;19;862;-65
2023/03/20 05:09:08;;;;;;;;;;;;;;;;;;7362438;19;823;-66
2023/03/20 05:11:38;;;;;;;;;;;;;;;;;;7362137;19;901;-66
2023/03/20 05:14:06;;;;;;;;;;;;;;;;;;7363130;19;1297;-66
2023/03/20 05:16:37;;;;;;;;;;;;;;;;;;7363895;19;799;-66
2023/03/20 05:19:26;;;;;;;;;;;;;;;;;;7360391;19;1352;-66
2023/03/20 05:22:13;;;;;;;;;;;;;;;;;;7362020;19;782;-66
2023/03/20 05:24:55;;;;;;;;;;;;;;;;;;7361797;19;1380;-66
2023/03/20 05:27:42;;;;;;;;;;;;;;;;;;7362765;19;761;-66
2023/03/20 05:30:34;;;;;;;;;;;;;;;;;;7363188;19;1157;-67
2023/03/20 05:33:20;;;;;;;;;;;;;;;;;;7366022;19;1383;-68
2023/03/20 05:36:08;;;;;;;;;;;;;;;;;;7361983;19;817;-67
2023/03/20 05:38:54;;;;;;;;;;;;;;;;;;7367546;19;1842;-66
2023/03/20 05:41:45;;;;;;;;;;;;;;;;;;7368065;19;815;-67
2023/03/20 05:44:13;;;;;;;;;;;;;;;;;;7369149;19;1277;-66
2023/03/20 05:47:07;;;;;;;;;;;;;;;;;;7373214;19;1681;-66
2023/03/20 05:50:07;;;;;;;;;;;;;;;;;;7367006;19;1190;-67
2023/03/20 05:52:59;;;;;;;;;;;;;;;;;;7366779;19;1188;-67
2023/03/20 05:55:35;;;;;;;;;;;;;;;;;;7366199;19;1332;-67
2023/03/20 05:58:21;;;;;;;;;;;;;;;;;;7370383;19;1857;-66
2023/03/20 06:01:15;;;;;;;;;;;;;;;;;;7368864;19;1291;-66
2023/03/20 06:04:01;;;;;;;;;;;;;;;;;;7368736;19;1400;-66
2023/03/20 06:07:08;;;;;;;;;;;;;;;;;;7368391;19;1215;-65
2023/03/20 06:09:38;;;;;;;;;;;;;;;;;;7366843;19;890;-64
2023/03/20 06:12:11;;;;;;;;;;;;;;;;;;7366156;19;739;-65
2023/03/20 06:14:39;;;;;;;;;;;;;;;;;;7365217;19;1305;-66
2023/03/20 06:17:09;;;;;;;;;;;;;;;;;;7365733;19;1833;-65
2023/03/20 06:19:38;;;;;;;;;;;;;;;;;;7366640;19;839;-65
2023/03/20 06:22:07;;;;;;;;;;;;;;;;;;7366908;19;780;-66
2023/03/20 06:24:37;;;;;;;;;;;;;;;;;;7366717;19;1285;-65
2023/03/20 06:27:05;;;;;;;;;;;;;;;;;;7366596;19;814;-66
2023/03/20 06:29:33;;;;;;;;;;;;;;;;;;7366678;19;805;-65
2023/03/20 06:32:13;;;;;;;;;;;;;;;;;;7366678;19;767;-65
2023/03/20 06:34:42;;;;;;;;;;;;;;;;;;7364998;19;1383;-65
2023/03/20 06:37:10;;;;;;;;;;;;;;;;;;7370287;19;1861;-64
2023/03/20 06:39:40;;;;;;;;;;;;;;;;;;7365650;19;784;-65
2023/03/20 06:42:12;;;;;;;;;;;;;;;;;;7367096;19;826;-65
2023/03/20 06:44:42;;;;;;;;;;;;;;;;;;7366020;19;1321;-65
2023/03/20 06:47:15;;;;;;;;;;;;;;;;;;7365898;19;750;-65
2023/03/20 06:49:43;;;;;;;;;;;;;;;;;;7365854;19;880;-65
2023/03/20 06:52:11;;;;;;;;;;;;;;;;;;7365232;19;839;-65
2023/03/20 06:54:40;;;;;;;;;;;;;;;;;;7364843;19;1277;-65
2023/03/20 06:57:09;;;;;;;;;;;;;;;;;;7366373;19;822;-66
2023/03/20 06:59:37;;;;;;;;;;;;;;;;;;7361942;19;1846;-65
2023/03/20 07:02:06;;;;;;;;;;;;;;;;;;7365149;19;847;-65
2023/03/20 07:04:35;;;;;;;;;;;;;;;;;;7368207;19;2168;-65
2023/03/20 07:07:04;;;;;;;;;;;;;;;;;;7366400;19;898;-65
2023/03/20 07:09:32;;;;;;;;;;;;;;;;;;7364897;19;858;-65
2023/03/20 07:12:01;;;;;;;;;;;;;;;;;;7366039;19;796;-65
2023/03/20 07:14:30;;;;;;;;;;;;;;;;;;7363801;19;1719;-65
2023/03/20 07:17:03;;;;;;;;;;;;;;;;;;7366101;19;823;-66
2023/03/20 07:19:31;;;;;;;;;;;;;;;;;;7362136;19;1846;-65
2023/03/20 07:22:00;;;;;;;;;;;;;;;;;;7367274;19;2241;-66
2023/03/20 07:24:29;;;;;;;;;;;;;;;;;;7368786;19;1827;-64
2023/03/20 07:26:59;;;;;;;;;;;;;;;;;;7366945;19;874;-64
2023/03/20 07:29:27;;;;;;;;;;;;;;;;;;7367208;19;831;-63
2023/03/20 07:31:59;;;;;;;;;;;;;;;;;;7371125;19;1897;-64
2023/03/20 07:34:31;;;;;;;;;;;;;;;;;;7365887;19;1246;-64
2023/03/20 07:37:00;;;;;;;;;;;;;;;;;;7366787;19;898;-65
2023/03/20 07:39:29;;;;;;;;;;;;;;;;;;7361334;19;1855;-65
2023/03/20 07:42:15;;;;;;;;;;;;;;;;;;7365606;19;847;-64
2023/03/20 07:44:46;;;;;;;;;;;;;;;;;;7364886;19;1326;-64
2023/03/20 07:47:15;;;;;;;;;;;;;;;;;;7365419;19;823;-64
2023/03/20 07:49:43;;;;;;;;;;;;;;;;;;7364973;19;1644;-65
2023/03/20 07:52:11;;;;;;;;;;;;;;;;;;7368675;19;2284;-65
2023/03/20 07:54:39;;;;;;;;;;;;;;;;;;7363867;19;1285;-65
2023/03/20 07:57:07;;;;;;;;;;;;;;;;;;7367206;19;1032;-65
2023/03/20 07:59:35;;;;;;;;;;;;;;;;;;7363092;19;1846;-65
2023/03/20 08:02:04;;;;;;;;;;;;;;;;;;7364577;19;810;-65
2023/03/20 08:04:32;;;;;;;;;;;;;;;;;;7366863;19;1818;-65
2023/03/20 08:07:00;;;;;;;;;;;;;;;;;;7364421;19;850;-66
2023/03/20 08:09:28;;;;;;;;;;;;;;;;;;7364620;19;845;-65
2023/03/20 08:11:56;;;;;;;;;;;;;;;;;;7366678;19;2129;-65
2023/03/20 08:14:25;;;;;;;;;;;;;;;;;;7363594;19;1352;-66
2023/03/20 08:16:53;;;;;;;;;;;;;;;;;;7364650;19;845;-66
2023/03/20 08:19:21;;;;;;;;;;;;;;;;;;7361554;19;1833;-65
2023/03/20 08:21:51;;;;;;;;;;;;;;;;;;7365492;19;845;-65
2023/03/20 08:24:19;;;;;;;;;;;;;;;;;;7364216;19;1277;-65
2023/03/20 08:26:47;;;;;;;;;;;;;;;;;;7365162;19;770;-65
2023/03/20 08:29:18;;;;;;;;;;;;;;;;;;7363672;19;822;-64
2023/03/20 08:31:46;;;;;;;;;;;;;;;;;;7365248;19;1882;-65
2023/03/20 08:34:14;;;;;;;;;;;;;;;;;;7363112;19;1298;-66
2023/03/20 08:36:42;;;;;;;;;;;;;;;;;;7364625;19;830;-64
2023/03/20 08:39:10;;;;;;;;;;;;;;;;;;7362070;19;1845;-65
2023/03/20 08:41:40;;;;;;;;;;;;;;;;;;7364391;19;818;-65
2023/03/20 08:44:08;;;;;;;;;;;;;;;;;;7362852;19;1294;-65
2023/03/20 08:46:38;;;;;;;;;;;;;;;;;;7363927;19;1898;-66
2023/03/20 08:49:06;;;;;;;;;;;;;;;;;;7367884;19;1482;-66
2023/03/20 08:51:34;;;;;;;;;;;;;;;;;;7364021;19;855;-65
2023/03/20 08:54:02;;;;;;;;;;;;;;;;;;7363241;19;1329;-65
2023/03/20 08:56:31;;;;;;;;;;;;;;;;;;7363800;19;834;-67
2023/03/20 08:58:59;;;;;;;;;;;;;;;;;;7361742;19;1846;-64
2023/03/20 09:01:27;;;;;;;;;;;;;;;;;;7363997;19;818;-65
2023/03/20 09:03:55;;;;;;;;;;;;;;;;;;7363553;19;1278;-64
2023/03/20 09:06:23;;;;;;;;;;;;;;;;;;7363345;19;850;-64
2023/03/20 09:08:52;;;;;;;;;;;;;;;;;;7363498;19;802;-64
2023/03/20 09:11:20;;;;;;;;;;;;;;;;;;7369262;19;1838;-65
2023/03/20 09:13:48;;;;;;;;;;;;;;;;;;7370171;19;1286;-64
2023/03/20 09:16:16;;;;;;;;;;;;;;;;;;7372994;19;1778;-64
2023/03/20 09:18:45;;;;;;;;;;;;;;;;;;7367983;19;1837;-64
2023/03/20 09:21:13;;;;;;;;;;;;;;;;;;7369568;19;860;-65
2023/03/20 09:23:41;;;;;;;;;;;;;;;;;;7368269;19;1313;-64
2023/03/20 09:26:09;;;;;;;;;;;;;;;;;;7370511;19;818;-64
2023/03/20 09:28:37;;;;;;;;;;;;;;;;;;7369162;19;731;-64
2023/03/20 09:31:05;;;;;;;;;;;;;;;;;;7370556;19;864;-66
2023/03/20 09:33:33;;;;;;;;;;;;;;;;;;7369509;19;1270;-65
2023/03/20 09:36:02;;;;;;;;;;;;;;;;;;7370066;19;786;-64
2023/03/20 09:38:30;;;;;;;;;;;;;;;;;;7369288;19;1830;-66
2023/03/20 09:40:58;;;;;;;;;;;;;;;;;;7368798;19;806;-65
2023/03/20 09:43:26;;;;;;;;;;;;;;;;;;7367619;19;831;-66
2023/03/20 09:45:54;;;;;;;;;;;;;;;;;;7371070;19;1899;-65
2023/03/20 09:48:23;;;;;;;;;;;;;;;;;;7370936;19;2182;-66
2023/03/20 09:50:51;;;;;;;;;;;;;;;;;;7372876;19;1830;-66
2023/03/20 09:53:19;;;;;;;;;;;;;;;;;;7369890;19;776;-66
2023/03/20 09:55:48;;;;;;;;;;;;;;;;;;7369388;19;1653;-65
2023/03/20 09:58:16;;;;;;;;;;;;;;;;;;7370215;19;1862;-66
2023/03/20 10:00:44;;;;;;;;;;;;;;;;;;7370565;19;867;-67
2023/03/20 10:03:12;;;;;;;;;;;;;;;;;;7368925;19;780;-66
2023/03/20 10:05:40;;;;;;;;;;;;;;;;;;7369669;19;1924;-66
2023/03/20 10:08:09;;;;;;;;;;;;;;;;;;7366117;19;833;-66
2023/03/20 10:10:37;;;;;;;;;;;;;;;;;;7373628;19;1873;-66
2023/03/20 10:13:05;;;;;;;;;;;;;;;;;;7370818;19;2104;-65
2023/03/20 10:15:33;;;;;;;;;;;;;;;;;;7370385;19;1870;-65
2023/03/20 10:18:01;;;;;;;;;;;;;;;;;;7368175;19;1432;-66
2023/03/20 10:20:30;;;;;;;;;;;;;;;;;;7367876;19;1850;-66
2023/03/20 10:22:58;;;;;;;;;;;;;;;;;;7365071;19;1629;-66
2023/03/20 10:25:26;;;;;;;;;;;;;;;;;;7372404;19;1813;-66
2023/03/20 10:27:54;;;;;;;;;;;;;;;;;;7373069;19;1844;-66
2023/03/20 10:30:23;;;;;;;;;;;;;;;;;;7369342;19;1532;-66
2023/03/20 10:32:51;;;;;;;;;;;;;;;;;;7369408;19;1547;-67
2023/03/20 10:35:19;;;;;;;;;;;;;;;;;;7365756;19;1928;-66
2023/03/20 10:37:47;;;;;;;;;;;;;;;;;;7372842;19;1810;-64
2023/03/20 10:40:16;;;;;;;;;;;;;;;;;;7370665;19;1924;-65
2023/03/20 10:42:44;;;;;;;;;;;;;;;;;;7368514;19;806;-65
2023/03/20 10:45:13;;;;;;;;;;;;;;;;;;7365849;19;1335;-65
2023/03/20 10:47:41;;;;;;;;;;;;;;;;;;7368213;19;868;-64
2023/03/20 10:50:09;;;;;;;;;;;;;;;;;;7368785;19;841;-65
2023/03/20 10:52:37;;;;;;;;;;;;;;;;;;7369853;19;1762;-65
2023/03/20 10:55:06;;;;;;;;;;;;;;;;;;7367144;19;1364;-65
2023/03/20 10:57:34;;;;;;;;;;;;;;;;;;7369440;19;820;-65
2023/03/20 11:00:03;;;;;;;;;;;;;;;;;;7365845;19;1845;-66
2023/03/20 11:02:32;;;;;;;;;;;;;;;;;;7366801;19;807;-66
2023/03/20 11:05:00;;;;;;;;;;;;;;;;;;7366084;19;1888;-66
2023/03/20 11:07:28;;;;;;;;;;;;;;;;;;7369545;19;1839;-65
2023/03/20 11:09:56;;;;;;;;;;;;;;;;;;7369951;19;1846;-66
2023/03/20 11:12:24;;;;;;;;;;;;;;;;;;7371284;19;1646;-66
2023/03/20 11:14:53;;;;;;;;;;;;;;;;;;7364917;19;1238;-65
2023/03/20 11:17:21;;;;;;;;;;;;;;;;;;7367935;19;809;-65
2023/03/20 11:19:49;;;;;;;;;;;;;;;;;;7365456;19;1850;-65
2023/03/20 11:22:17;;;;;;;;;;;;;;;;;;7366829;19;793;-65
2023/03/20 11:24:45;;;;;;;;;;;;;;;;;;7366090;19;1316;-65
2023/03/20 11:27:14;;;;;;;;;;;;;;;;;;7367771;19;870;-64
2023/03/20 11:29:42;;;;;;;;;;;;;;;;;;7365476;19;884;-66
2023/03/20 11:32:10;;;;;;;;;;;;;;;;;;7366707;19;763;-66
2023/03/20 11:34:39;;;;;;;;;;;;;;;;;;7362271;19;1333;-64
2023/03/20 11:37:08;;;;;;;;;;;;;;;;;;7367130;19;804;-64
2023/03/20 11:39:36;;;;;;;;;;;;;;;;;;7364973;19;1858;-67
2023/03/20 11:42:05;;;;;;;;;;;;;;;;;;7367094;19;917;-64
2023/03/20 11:44:33;;;;;;;;;;;;;;;;;;7364743;19;1266;-65
2023/03/20 11:47:02;;;;;;;;;;;;;;;;;;7365902;19;873;-66
2023/03/20 11:49:30;;;;;;;;;;;;;;;;;;7364809;19;865;-65
2023/03/20 11:51:58;;;;;;;;;;;;;;;;;;7365980;19;794;-65
2023/03/20 11:54:27;;;;;;;;;;;;;;;;;;7364927;19;1319;-66
2023/03/20 11:56:55;;;;;;;;;;;;;;;;;;7366345;19;802;-65
2023/03/20 11:59:23;;;;;;;;;;;;;;;;;;7364601;19;1838;-67
2023/03/20 12:01:51;;;;;;;;;;;;;;;;;;7366259;19;802;-66
2023/03/20 12:04:19;;;;;;;;;;;;;;;;;;7363463;19;1356;-67
2023/03/20 12:06:47;;;;;;;;;;;;;;;;;;7365060;19;811;-64
2023/03/20 12:09:15;;;;;;;;;;;;;;;;;;7363581;19;887;-67
2023/03/20 12:11:44;;;;;;;;;;;;;;;;;;7365129;19;854;-66
2023/03/20 12:14:12;;;;;;;;;;;;;;;;;;7364694;19;1277;-65
2023/03/20 12:16:40;;;;;;;;;;;;;;;;;;7364609;19;774;-65
2023/03/20 12:19:08;;;;;;;;;;;;;;;;;;7361055;19;1842;-66
2023/03/20 12:21:36;;;;;;;;;;;;;;;;;;7364964;19;865;-66
2023/03/20 12:24:04;;;;;;;;;;;;;;;;;;7363935;19;1262;-66
2023/03/20 12:26:33;;;;;;;;;;;;;;;;;;7366034;19;826;-66
2023/03/20 12:29:01;;;;;;;;;;;;;;;;;;7363958;19;786;-65
2023/03/20 12:31:29;;;;;;;;;;;;;;;;;;7365361;19;731;-66
2023/03/20 12:33:57;;;;;;;;;;;;;;;;;;7364238;19;1202;-66
2023/03/20 12:36:25;;;;;;;;;;;;;;;;;;7367581;19;1803;-66
2023/03/20 12:38:54;;;;;;;;;;;;;;;;;;7370465;19;1780;-66
2023/03/20 12:41:22;;;;;;;;;;;;;;;;;;7362756;19;1852;-65
2023/03/20 12:43:50;;;;;;;;;;;;;;;;;;7368046;19;1857;-65
2023/03/20 12:46:18;;;;;;;;;;;;;;;;;;7378278;19;2106;-65
2023/03/20 12:48:47;;;;;;;;;;;;;;;;;;7381369;19;2229;-67
2023/03/20 12:51:15;;;;;;;;;;;;;;;;;;7383598;19;2127;-66
2023/03/20 12:53:43;;;;;;;;;;;;;;;;;;7379025;19;1339;-66
2023/03/20 12:56:11;;;;;;;;;;;;;;;;;;7385003;19;1857;-71
2023/03/20 12:58:40;;;;;;;;;;;;;;;;;;7378093;19;786;-66
2023/03/20 13:01:08;;;;;;;;;;;;;;;;;;7376604;19;1833;-65
2023/03/20 13:03:36;;;;;;;;;;;;;;;;;;7378582;19;1280;-67
2023/03/20 13:06:04;;;;;;;;;;;;;;;;;;7378774;19;818;-67
2023/03/20 13:08:33;;;;;;;;;;;;;;;;;;7378725;19;798;-66
2023/03/20 13:11:01;;;;;;;;;;;;;;;;;;7377219;19;857;-67
2023/03/20 13:13:29;;;;;;;;;;;;;;;;;;7378255;19;802;-66
2023/03/20 13:15:57;;;;;;;;;;;;;;;;;;7379353;19;884;-66
2023/03/20 13:18:25;;;;;;;;;;;;;;;;;;7382432;19;1860;-65
2023/03/20 13:20:53;;;;;;;;;;;;;;;;;;7377799;19;1866;-66
2023/03/20 13:23:21;;;;;;;;;;;;;;;;;;7378226;19;803;-65
2023/03/20 13:25:52;;;;;;;;;;;;;;;;;;7376106;19;1278;-66
2023/03/20 13:28:20;;;;;;;;;;;;;;;;;;7379158;19;751;-66
2023/03/20 13:30:48;;;;;;;;;;;;;;;;;;7376829;19;858;-66
2023/03/20 13:33:16;;;;;;;;;;;;;;;;;;7379286;19;1723;-66
2023/03/20 13:35:45;;;;;;;;;;;;;;;;;;7378263;19;1266;-65
2023/03/20 13:38:13;;;;;;;;;;;;;;;;;;7380797;19;763;-68
2023/03/20 13:40:42;;;;;;;;;;;;;;;;;;7380054;19;1844;-66
2023/03/20 13:43:10;;;;;;;;;;;;;;;;;;7385475;19;945;-66
2023/03/20 13:45:38;;;;;;;;;;;;;;;;;;7386982;19;1533;-67
2023/03/20 13:48:06;;;;;;;;;;;;;;;;;;7391239;19;1875;-66
2023/03/20 13:50:35;;;;;;;;;;;;;;;;;;7389662;19;822;-66
2023/03/20 13:53:03;;;;;;;;;;;;;;;;;;7385540;19;881;-66
2023/03/20 13:55:31;;;;;;;;;;;;;;;;;;7389045;19;1332;-66
2023/03/20 13:58:00;;;;;;;;;;;;;;;;;;7382244;19;830;-66
2023/03/20 14:00:28;;;;;;;;;;;;;;;;;;7382631;19;1839;-66
2023/03/20 14:02:56;;;;;;;;;;;;;;;;;;7385301;19;774;-65
2023/03/20 14:05:25;;;;;;;;;;;;;;;;;;7381414;19;1285;-67
2023/03/20 14:07:53;;;;;;;;;;;;;;;;;;7378203;19;791;-66
2023/03/20 14:10:21;;;;;;;;;;;;;;;;;;7384046;19;767;-67
2023/03/20 14:12:49;;;;;;;;;;;;;;;;;;7375836;19;794;-67
2023/03/20 14:15:18;;;;;;;;;;;;;;;;;;7372924;19;1877;-66
2023/03/20 14:17:46;;;;;;;;;;;;;;;;;;7371516;19;834;-65
2023/03/20 14:20:14;;;;;;;;;;;;;;;;;;7366870;19;1846;-65
2023/03/20 14:22:43;;;;;;;;;;;;;;;;;;7368361;19;984;-66
2023/03/20 14:25:11;;;;;;;;;;;;;;;;;;7364382;19;1320;-66
2023/03/20 14:27:39;;;;;;;;;;;;;;;;;;7371429;19;1596;-67
2023/03/20 14:30:08;;;;;;;;;;;;;;;;;;7372311;19;1350;-66
2023/03/20 14:32:36;;;;;;;;;;;;;;;;;;7367593;19;826;-66
2023/03/20 14:35:04;;;;;;;;;;;;;;;;;;7366623;19;1273;-66
2023/03/20 14:37:32;;;;;;;;;;;;;;;;;;7368574;19;862;-67
2023/03/20 14:40:00;;;;;;;;;;;;;;;;;;7367434;19;1864;-67
2023/03/20 14:42:29;;;;;;;;;;;;;;;;;;7367877;19;849;-67
2023/03/20 14:44:57;;;;;;;;;;;;;;;;;;7366314;19;1708;-66
2023/03/20 14:47:25;;;;;;;;;;;;;;;;;;7372049;19;2005;-66
2023/03/20 14:49:53;;;;;;;;;;;;;;;;;;7366928;19;849;-66
2023/03/20 14:52:21;;;;;;;;;;;;;;;;;;7370062;19;1603;-67
2023/03/20 14:54:49;;;;;;;;;;;;;;;;;;7368823;19;1575;-67
2023/03/20 14:57:18;;;;;;;;;;;;;;;;;;7366998;19;803;-67
2023/03/20 14:59:46;;;;;;;;;;;;;;;;;;7366094;19;1837;-67
2023/03/20 15:02:15;;;;;;;;;;;;;;;;;;7371136;19;1509;-68
2023/03/20 15:04:43;;;;;;;;;;;;;;;;;;7369266;19;1607;-68
2023/03/20 15:07:11;;;;;;;;;;;;;;;;;;7366834;19;1508;-67
2023/03/20 15:09:39;;;;;;;;;;;;;;;;;;7366814;19;853;-68
2023/03/20 15:12:08;;;;;;;;;;;;;;;;;;7371766;19;1783;-68
2023/03/20 15:14:38;;;;;;;;;;;;;;;;;;7365116;19;2095;-67
2023/03/20 15:17:06;;;;;;;;;;;;;;;;;;7370657;19;1451;-67
2023/03/20 15:19:37;;;;;;;;;;;;;;;;;;7366378;19;824;-68
2023/03/20 15:22:05;;;;;;;;;;;;;;;;;;7364955;19;1904;-66
2023/03/20 15:24:33;;;;;;;;;;;;;;;;;;7371046;19;1991;-67
2023/03/20 15:27:01;;;;;;;;;;;;;;;;;;7367436;19;1200;-67
2023/03/20 15:29:29;;;;;;;;;;;;;;;;;;7365538;19;1499;-66
2023/03/20 15:31:57;;;;;;;;;;;;;;;;;;7367155;19;787;-66
2023/03/20 15:34:26;;;;;;;;;;;;;;;;;;7367629;19;1903;-67
2023/03/20 15:36:54;;;;;;;;;;;;;;;;;;7366041;19;845;-67
2023/03/20 15:39:22;;;;;;;;;;;;;;;;;;7363986;19;1777;-66
2023/03/20 15:41:50;;;;;;;;;;;;;;;;;;7366593;19;1849;-67
2023/03/20 15:44:18;;;;;;;;;;;;;;;;;;7369593;19;1986;-67
2023/03/20 15:46:46;;;;;;;;;;;;;;;;;;7366643;19;845;-67
2023/03/20 15:49:15;;;;;;;;;;;;;;;;;;7368354;19;1879;-67
2023/03/20 15:51:43;;;;;;;;;;;;;;;;;;7369884;19;1935;-66
2023/03/20 15:54:11;;;;;;;;;;;;;;;;;;7367245;19;1809;-66
2023/03/20 15:56:41;;;;;;;;;;;;;;;;;;7370406;19;1812;-66
2023/03/20 15:59:10;;;;;;;;;;;;;;;;;;7361861;19;754;-66
2023/03/20 16:01:38;;;;;;;;;;;;;;;;;;7364023;19;1857;-66
2023/03/20 16:04:06;;;;;;;;;;;;;;;;;;7364373;19;1357;-66
2023/03/20 16:06:34;;;;;;;;;;;;;;;;;;7365847;19;810;-67
2023/03/20 16:09:02;;;;;;;;;;;;;;;;;;7364549;19;837;-66
2023/03/20 16:11:30;;;;;;;;;;;;;;;;;;7365793;19;802;-67
2023/03/20 16:13:59;;;;;;;;;;;;;;;;;;7363030;19;1364;-67
2023/03/20 16:16:28;;;;;;;;;;;;;;;;;;7365197;19;851;-66
2023/03/20 16:18:57;;;;;;;;;;;;;;;;;;7364159;19;782;-67
2023/03/20 16:21:25;;;;;;;;;;;;;;;;;;7360844;19;1853;-66
2023/03/20 16:23:53;;;;;;;;;;;;;;;;;;7367474;19;1901;-66
2023/03/20 16:26:21;;;;;;;;;;;;;;;;;;7367399;19;2020;-67
2023/03/20 16:28:49;;;;;;;;;;;;;;;;;;7364014;19;828;-67
2023/03/20 16:31:18;;;;;;;;;;;;;;;;;;7364151;19;873;-68
2023/03/20 16:33:46;;;;;;;;;;;;;;;;;;7366558;19;1849;-67
2023/03/20 16:36:14;;;;;;;;;;;;;;;;;;7364684;19;797;-68
2023/03/20 16:38:42;;;;;;;;;;;;;;;;;;7364062;19;810;-68
2023/03/20 16:41:11;;;;;;;;;;;;;;;;;;7363258;19;1841;-67
2023/03/20 16:43:39;;;;;;;;;;;;;;;;;;7366371;19;1845;-68
2023/03/20 16:46:08;;;;;;;;;;;;;;;;;;7365277;19;1909;-67
2023/03/20 16:48:36;;;;;;;;;;;;;;;;;;7364138;19;762;-68
2023/03/20 16:51:05;;;;;;;;;;;;;;;;;;7364276;19;834;-68
2023/03/20 16:53:33;;;;;;;;;;;;;;;;;;7363950;19;1538;-68
2023/03/20 16:56:03;;;;;;;;;;;;;;;;;;7363778;19;841;-68
2023/03/20 16:58:31;;;;;;;;;;;;;;;;;;7361799;19;782;-67
2023/03/20 17:01:00;;;;;;;;;;;;;;;;;;7362857;19;1849;-67
2023/03/20 17:03:28;;;;;;;;;;;;;;;;;;7364031;19;861;-67
2023/03/20 17:05:56;;;;;;;;;;;;;;;;;;7360813;19;1368;-67
2023/03/20 17:08:25;;;;;;;;;;;;;;;;;;7363399;19;699;-67
2023/03/20 17:10:53;;;;;;;;;;;;;;;;;;7362933;19;869;-65
2023/03/20 17:13:21;;;;;;;;;;;;;;;;;;7362907;19;861;-65
2023/03/20 17:15:49;;;;;;;;;;;;;;;;;;7361393;19;1275;-67
2023/03/20 17:18:17;;;;;;;;;;;;;;;;;;7363162;19;821;-66
2023/03/20 17:20:45;;;;;;;;;;;;;;;;;;7364913;19;2142;-67
2023/03/20 17:23:15;;;;;;;;;;;;;;;;;;7365406;19;886;-67
2023/03/20 17:25:43;;;;;;;;;;;;;;;;;;7361756;19;1262;-67
2023/03/20 17:28:11;;;;;;;;;;;;;;;;;;7364476;19;846;-67